Time;durP1;ratioP1;P1;durP2;ratioP2;P2;SDS_P1;SDS_P2;PMS_P1;PMS_P2;Temp;Humidity;BMP_temperature;BMP_pressure;BME280_temperature;BME280_humidity;BME280_pressure;Samples;Min_cycle;Max_cycle;Signal;HPM_P1;HPM_P2
2023/04/02 00:00:13;;;;;;;12.27;8.17;;;8.50;99.90;;;;;;4994772;28;20240;-82
2023/04/02 00:03:03;;;;;;;10.83;7.90;;;8.50;99.90;;;;;;4995132;28;20276;-81
2023/04/02 00:05:50;;;;;;;9.60;7.83;;;8.50;99.90;;;;;;4994972;28;20180;-82
2023/04/02 00:08:37;;;;;;;8.53;6.90;;;8.60;99.90;;;;;;4996286;28;20198;-83
2023/04/02 00:11:04;;;;;;;11.40;8.30;;;8.50;99.90;;;;;;4994743;28;20649;-82
2023/04/02 00:13:34;;;;;;;10.60;8.43;;;8.50;99.90;;;;;;4996584;28;20245;-81
2023/04/02 00:16:02;;;;;;;10.77;8.13;;;8.50;99.90;;;;;;4994852;28;20214;-81
2023/04/02 00:18:28;;;;;;;8.43;7.53;;;8.50;99.90;;;;;;4994634;28;20701;-82
2023/04/02 00:21:12;;;;;;;9.40;7.60;;;8.50;99.90;;;;;;4995503;28;20182;-82
2023/04/02 00:23:41;;;;;;;9.43;7.30;;;8.50;99.90;;;;;;4996070;28;20261;-81
2023/04/02 00:26:20;;;;;;;10.23;7.37;;;8.60;99.90;;;;;;4996379;28;20183;-82
2023/04/02 00:28:46;;;;;;;9.63;7.77;;;8.50;99.90;;;;;;4994650;28;20580;-82
2023/04/02 00:31:12;;;;;;;8.33;6.77;;;8.50;99.90;;;;;;4995480;28;20274;-81
2023/04/02 00:33:37;;;;;;;11.00;7.17;;;8.50;99.90;;;;;;4995726;28;20218;-81
2023/04/02 00:36:06;;;;;;;10.13;7.63;;;8.50;99.90;;;;;;4996233;28;20174;-83
2023/04/02 00:38:34;;;;;;;8.57;6.80;;;8.50;99.90;;;;;;4994616;28;20198;-82
2023/04/02 00:41:02;;;;;;;8.33;7.03;;;8.50;99.90;;;;;;4995675;28;20196;-82
2023/04/02 00:43:33;;;;;;;9.03;7.27;;;8.50;99.90;;;;;;4994383;28;20210;-80
2023/04/02 00:46:12;;;;;;;7.43;6.33;;;8.50;99.90;;;;;;4994166;28;20179;-82
2023/04/02 00:48:53;;;;;;;8.20;6.87;;;8.50;99.90;;;;;;4994371;28;20224;-82
2023/04/02 00:51:29;;;;;;;8.80;6.83;;;8.50;99.90;;;;;;4993629;28;20277;-81
2023/04/02 00:53:59;;;;;;;7.90;6.50;;;8.50;99.90;;;;;;4994723;28;20241;-81
2023/04/02 00:56:30;;;;;;;8.87;7.00;;;8.50;99.90;;;;;;4994340;28;20182;-82
2023/04/02 00:58:57;;;;;;;8.63;6.63;;;8.50;99.90;;;;;;4994658;28;20224;-83
2023/04/02 01:01:27;;;;;;;8.77;7.10;;;8.50;99.90;;;;;;4993467;28;20265;-82
2023/04/02 01:04:04;;;;;;;7.97;6.63;;;8.50;99.90;;;;;;4994962;28;20211;-82
2023/04/02 01:06:36;;;;;;;7.57;6.53;;;8.60;99.90;;;;;;4994127;28;20228;-82
2023/04/02 01:09:19;;;;;;;7.80;6.50;;;8.60;99.90;;;;;;4994179;28;20233;-82
2023/04/02 01:11:51;;;;;;;9.47;7.00;;;8.60;99.90;;;;;;4993521;28;20170;-82
2023/04/02 01:14:36;;;;;;;9.80;6.90;;;8.60;99.90;;;;;;4995057;28;20176;-82
2023/04/02 01:17:27;;;;;;;8.90;7.30;;;8.60;99.90;;;;;;4994280;28;20656;-82
2023/04/02 01:20:46;;;;;;;8.70;7.23;;;8.60;99.90;;;;;;4995266;28;20203;-82
2023/04/02 01:23:41;;;;;;;8.67;7.17;;;8.50;99.90;;;;;;4919044;29;20214;-82
2023/04/02 01:26:18;;;;;;;8.77;7.20;;;8.50;99.90;;;;;;4995314;28;20207;-81
2023/04/02 01:29:09;;;;;;;9.83;7.57;;;8.50;99.90;;;;;;4995329;28;20732;-82
2023/04/02 01:31:36;;;;;;;9.67;7.57;;;8.50;99.90;;;;;;4994209;28;20259;-82
2023/04/02 01:34:05;;;;;;;8.73;7.30;;;8.60;99.90;;;;;;4993767;28;20175;-82
2023/04/02 01:36:36;;;;;;;8.77;6.77;;;8.60;99.90;;;;;;4993681;28;20183;-82
2023/04/02 01:39:23;;;;;;;8.40;6.80;;;8.60;99.90;;;;;;4993589;28;20203;-83
2023/04/02 01:42:08;;;;;;;9.87;7.43;;;8.60;99.90;;;;;;4994309;28;20178;-82
2023/04/02 01:44:47;;;;;;;8.73;7.03;;;8.60;99.90;;;;;;4993518;28;20199;-82
2023/04/02 01:47:16;;;;;;;8.20;6.80;;;8.60;99.90;;;;;;4993791;28;20175;-82
2023/04/02 01:49:42;;;;;;;9.93;8.03;;;8.60;99.90;;;;;;4993706;28;20168;-82
2023/04/02 01:52:15;;;;;;;11.07;8.27;;;8.70;99.90;;;;;;4994645;28;20214;-82
2023/04/02 01:54:41;;;;;;;9.67;7.60;;;8.70;99.90;;;;;;4995135;28;20550;-82
2023/04/02 01:57:07;;;;;;;10.17;7.90;;;8.70;99.90;;;;;;4999020;28;20677;-82
2023/04/02 01:59:33;;;;;;;10.47;8.07;;;8.70;99.90;;;;;;4997624;28;20221;-82
2023/04/02 02:02:04;;;;;;;12.63;8.60;;;8.70;99.90;;;;;;4997285;28;20172;-83
2023/04/02 02:04:31;;;;;;;9.47;7.63;;;8.70;99.90;;;;;;4997820;28;20175;-81
2023/04/02 02:06:59;;;;;;;11.17;7.93;;;8.70;99.90;;;;;;4997847;28;20191;-81
2023/04/02 02:09:28;;;;;;;8.53;6.77;;;8.70;99.90;;;;;;4997800;28;20191;-83
2023/04/02 02:11:56;;;;;;;2.40;2.20;;;8.70;99.90;;;;;;4998562;28;20560;-82
2023/04/02 02:14:23;;;;;;;1.37;1.27;;;8.50;99.90;;;;;;4998214;28;20731;-82
2023/04/02 02:16:52;;;;;;;2.27;1.00;;;8.40;99.90;;;;;;4996635;28;20180;-81
2023/04/02 02:19:46;;;;;;;1.07;0.90;;;8.20;99.90;;;;;;4996980;28;20294;-81
2023/04/02 02:22:30;;;;;;;1.33;0.80;;;8.00;99.90;;;;;;4996934;28;20177;-81
2023/04/02 02:24:59;;;;;;;0.63;0.63;;;7.90;99.90;;;;;;4997704;28;20169;-82
2023/04/02 02:27:25;;;;;;;1.00;0.90;;;7.80;99.90;;;;;;4998227;28;20191;-80
2023/04/02 02:30:06;;;;;;;2.23;0.80;;;7.60;99.90;;;;;;4996576;28;20246;-81
2023/04/02 02:32:33;;;;;;;0.47;0.47;;;7.60;99.90;;;;;;4998325;28;20492;-81
2023/04/02 02:35:31;;;;;;;0.50;0.50;;;7.60;99.90;;;;;;4998276;28;20180;-81
2023/04/02 02:38:14;;;;;;;0.50;0.50;;;7.50;99.90;;;;;;4993769;28;20215;-82
2023/04/02 02:40:44;;;;;;;0.60;0.60;;;7.50;99.90;;;;;;4996732;28;20253;-81
2023/04/02 02:43:12;;;;;;;0.60;0.60;;;7.50;99.90;;;;;;4998453;28;20200;-81
2023/04/02 02:45:40;;;;;;;0.50;0.50;;;7.50;99.90;;;;;;4996956;28;20172;-81
2023/04/02 02:48:12;;;;;;;0.80;0.70;;;7.40;99.90;;;;;;4998418;28;20691;-81
2023/04/02 02:50:38;;;;;;;0.57;0.57;;;7.40;99.90;;;;;;4996774;28;20579;-81
2023/04/02 02:53:18;;;;;;;0.50;0.50;;;7.30;99.90;;;;;;4997128;28;20266;-81
2023/04/02 02:55:45;;;;;;;0.80;0.60;;;7.30;99.90;;;;;;4996959;28;20271;-81
2023/04/02 02:58:18;;;;;;;0.60;0.60;;;7.40;99.90;;;;;;4997605;28;20242;-82
2023/04/02 03:00:45;;;;;;;0.60;0.60;;;7.40;99.90;;;;;;4996103;28;20662;-81
2023/04/02 03:03:15;;;;;;;0.70;0.70;;;7.40;99.90;;;;;;4997725;28;20251;-83
2023/04/02 03:05:41;;;;;;;0.50;0.50;;;7.30;99.90;;;;;;4996592;28;20186;-81
2023/04/02 03:08:18;;;;;;;1.30;0.70;;;7.20;99.90;;;;;;4996872;28;20673;-81
2023/04/02 03:10:53;;;;;;;0.70;0.70;;;7.20;99.90;;;;;;4997473;28;20171;-82
2023/04/02 03:13:37;;;;;;;0.50;0.50;;;7.20;99.90;;;;;;4996293;28;20208;-81
2023/04/02 03:16:25;;;;;;;0.80;0.80;;;7.20;99.90;;;;;;4997821;28;20661;-81
2023/04/02 03:19:11;;;;;;;0.63;0.63;;;7.20;99.90;;;;;;4996490;28;20198;-81
2023/04/02 03:21:44;;;;;;;0.77;0.70;;;7.20;99.90;;;;;;4994931;28;20182;-79
2023/04/02 03:24:40;;;;;;;0.80;0.80;;;7.20;99.90;;;;;;4996244;28;20210;-79
2023/04/02 03:27:10;;;;;;;0.80;0.80;;;7.20;99.90;;;;;;4994671;28;20182;-78
2023/04/02 03:29:42;;;;;;;0.80;0.80;;;7.20;99.90;;;;;;4994162;28;20191;-76
2023/04/02 03:32:13;;;;;;;0.70;0.70;;;7.20;99.90;;;;;;4994634;28;20254;-79
2023/04/02 03:34:54;;;;;;;0.93;0.70;;;7.20;99.90;;;;;;4994821;28;20257;-79
2023/04/02 03:37:33;;;;;;;0.77;0.77;;;7.10;99.90;;;;;;4995829;28;20202;-79
2023/04/02 03:40:01;;;;;;;0.70;0.70;;;7.10;99.90;;;;;;4995225;28;20524;-79
2023/04/02 03:42:35;;;;;;;0.80;0.80;;;7.00;99.90;;;;;;4994349;28;20734;-79
2023/04/02 03:45:13;;;;;;;1.10;1.00;;;7.00;99.90;;;;;;4993215;28;20174;-79
2023/04/02 03:47:42;;;;;;;0.73;0.60;;;6.90;99.90;;;;;;4994482;28;20277;-79
2023/04/02 03:50:21;;;;;;;1.90;0.80;;;6.90;99.90;;;;;;4994973;28;20229;-78
2023/04/02 03:52:47;;;;;;;0.77;0.70;;;6.80;99.90;;;;;;4996024;28;20180;-80
2023/04/02 03:55:27;;;;;;;0.80;0.80;;;6.80;99.90;;;;;;4994580;28;20182;-79
2023/04/02 03:57:56;;;;;;;0.60;0.60;;;6.80;99.90;;;;;;4995188;28;20211;-79
2023/04/02 04:00:32;;;;;;;0.50;0.50;;;6.70;99.90;;;;;;4993524;28;20226;-80
2023/04/02 04:03:10;;;;;;;0.70;0.70;;;6.70;99.90;;;;;;4995521;28;20300;-79
2023/04/02 04:05:45;;;;;;;0.50;0.50;;;6.70;99.90;;;;;;4994064;28;20278;-80
2023/04/02 04:08:17;;;;;;;1.53;0.83;;;6.60;99.90;;;;;;4994053;28;20198;-79
2023/04/02 04:10:42;;;;;;;0.63;0.63;;;6.60;99.90;;;;;;4994791;28;20233;-79
2023/04/02 04:13:13;;;;;;;0.70;0.70;;;6.50;99.90;;;;;;4993864;28;20187;-79
2023/04/02 04:15:54;;;;;;;0.70;0.70;;;6.50;99.90;;;;;;4994289;28;20186;-79
2023/04/02 04:18:33;;;;;;;0.87;0.80;;;6.50;99.90;;;;;;4994150;28;20281;-79
2023/04/02 04:21:02;;;;;;;0.70;0.70;;;6.50;99.90;;;;;;4993538;28;20320;-79
2023/04/02 04:23:34;;;;;;;0.40;0.40;;;6.40;99.90;;;;;;4995069;28;20214;-79
2023/04/02 04:26:08;;;;;;;0.83;0.77;;;6.40;99.90;;;;;;4994012;28;20183;-79
2023/04/02 04:28:48;;;;;;;0.70;0.50;;;6.30;99.90;;;;;;4994753;28;20205;-79
2023/04/02 04:31:29;;;;;;;0.60;0.60;;;6.30;99.90;;;;;;4994988;28;20175;-79
2023/04/02 04:34:03;;;;;;;0.60;0.60;;;6.10;99.90;;;;;;4993904;28;20273;-79
2023/04/02 04:36:35;;;;;;;1.07;0.70;;;6.00;99.90;;;;;;4993719;28;20182;-79
2023/04/02 04:39:13;;;;;;;0.50;0.50;;;6.00;99.90;;;;;;4993935;28;20701;-79
2023/04/02 04:41:41;;;;;;;0.60;0.60;;;6.00;99.90;;;;;;4991715;28;20178;-86
2023/04/02 04:44:23;;;;;;;0.70;0.70;;;5.90;99.90;;;;;;4991921;28;20193;-85
2023/04/02 04:46:49;;;;;;;0.40;0.40;;;5.90;99.90;;;;;;4992232;28;20168;-85
2023/04/02 04:49:37;;;;;;;0.60;0.60;;;5.80;99.90;;;;;;4991779;28;20667;-85
2023/04/02 04:52:33;;;;;;;0.93;0.60;;;5.70;99.90;;;;;;4991840;28;20335;-83
2023/04/02 04:55:00;;;;;;;0.63;0.50;;;5.70;99.90;;;;;;4991349;28;20653;-82
2023/04/02 04:57:33;;;;;;;1.13;0.50;;;5.70;99.90;;;;;;4991809;28;20211;-82
2023/04/02 05:00:14;;;;;;;0.50;0.50;;;5.80;99.90;;;;;;4992666;28;20175;-82
2023/04/02 05:02:51;;;;;;;0.87;0.40;;;5.80;99.90;;;;;;4992073;28;20203;-82
2023/04/02 05:05:23;;;;;;;1.03;0.53;;;5.70;99.90;;;;;;4991910;28;20177;-83
2023/04/02 05:07:59;;;;;;;0.50;0.50;;;5.70;99.90;;;;;;4993006;28;20198;-87
2023/04/02 05:10:30;;;;;;;0.67;0.50;;;5.80;99.90;;;;;;4991172;28;20202;-87
2023/04/02 05:13:03;;;;;;;0.50;0.50;;;5.90;99.90;;;;;;4991935;28;20172;-87
2023/04/02 05:15:34;;;;;;;1.03;0.40;;;5.80;99.90;;;;;;4990948;28;20651;-89
2023/04/02 05:18:29;;;;;;;1.50;0.50;;;5.70;99.90;;;;;;4991876;28;20199;-83
2023/04/02 05:21:19;;;;;;;0.60;0.60;;;5.70;99.90;;;;;;4982422;28;20187;-89
2023/04/02 05:24:16;;;;;;;1.07;0.30;;;5.60;99.90;;;;;;4991357;28;20581;-87
2023/04/02 05:26:46;;;;;;;0.50;0.37;;;5.50;99.90;;;;;;4991579;28;20271;-87
2023/04/02 05:29:28;;;;;;;0.27;0.27;;;5.40;99.90;;;;;;4991363;28;20191;-88
2023/04/02 05:32:14;;;;;;;0.30;0.30;;;5.40;99.90;;;;;;4991356;28;20259;-86
2023/04/02 05:34:45;;;;;;;0.30;0.30;;;5.40;99.90;;;;;;4991613;28;20634;-86
2023/04/02 05:37:20;;;;;;;0.47;0.47;;;5.40;99.90;;;;;;4991725;28;20200;-85
2023/04/02 05:39:51;;;;;;;1.23;0.50;;;5.30;99.90;;;;;;4992086;28;20254;-84
2023/04/02 05:42:23;;;;;;;0.53;0.53;;;5.20;99.90;;;;;;4992741;28;20236;-85
2023/04/02 05:45:12;;;;;;;0.30;0.30;;;5.20;99.90;;;;;;4992883;28;20251;-87
2023/04/02 05:47:41;;;;;;;0.40;0.40;;;5.20;99.90;;;;;;4979003;28;20214;-87
2023/04/02 05:50:26;;;;;;;0.77;0.77;;;5.20;99.90;;;;;;4990694;28;20195;-86
2023/04/02 05:52:59;;;;;;;0.50;0.50;;;5.20;99.90;;;;;;4992743;28;20210;-86
2023/04/02 05:55:32;;;;;;;0.70;0.70;;;5.20;99.90;;;;;;4991598;28;20643;-86
2023/04/02 05:58:04;;;;;;;1.43;0.70;;;5.20;99.90;;;;;;4992555;28;20239;-86
2023/04/02 06:00:38;;;;;;;0.60;0.60;;;5.20;99.90;;;;;;4990730;28;20233;-83
2023/04/02 06:03:15;;;;;;;0.80;0.80;;;5.30;99.90;;;;;;4992424;28;20277;-86
2023/04/02 06:05:44;;;;;;;0.90;0.90;;;5.40;99.90;;;;;;4991326;28;20194;-87
2023/04/02 06:08:22;;;;;;;1.07;1.00;;;5.40;99.90;;;;;;4991197;28;20279;-87
2023/04/02 06:10:59;;;;;;;1.60;1.40;;;5.50;99.90;;;;;;4990521;28;20176;-86
2023/04/02 06:13:26;;;;;;;1.90;1.30;;;5.50;99.90;;;;;;4991488;28;20215;-87
2023/04/02 06:15:52;;;;;;;1.53;1.43;;;5.40;99.90;;;;;;4991244;28;20235;-87
2023/04/02 06:18:21;;;;;;;1.17;1.07;;;5.40;99.90;;;;;;4992255;28;20196;-87
2023/04/02 06:20:47;;;;;;;1.37;1.27;;;5.40;99.90;;;;;;4990665;28;20628;-86
2023/04/02 06:23:19;;;;;;;1.20;1.10;;;5.60;99.90;;;;;;4992104;28;20287;-87
2023/04/02 06:25:54;;;;;;;1.10;1.00;;;5.50;99.90;;;;;;4990805;28;20223;-85
2023/04/02 06:28:26;;;;;;;1.10;1.00;;;5.60;99.90;;;;;;4990950;28;20198;-86
2023/04/02 06:30:56;;;;;;;0.97;0.90;;;5.60;99.90;;;;;;4990584;28;20174;-87
2023/04/02 06:33:22;;;;;;;1.63;1.20;;;5.50;99.90;;;;;;4990987;28;20196;-86
2023/04/02 06:35:50;;;;;;;1.40;1.30;;;5.50;99.90;;;;;;4990787;28;20273;-87
2023/04/02 06:38:24;;;;;;;1.23;1.13;;;5.50;99.90;;;;;;4991482;28;20203;-89
2023/04/02 06:40:58;;;;;;;1.10;1.00;;;5.60;99.90;;;;;;4992255;28;20167;-89
2023/04/02 06:43:32;;;;;;;1.10;1.00;;;5.60;99.90;;;;;;4994672;28;20705;-89
2023/04/02 06:46:01;;;;;;;1.10;1.00;;;5.60;99.90;;;;;;4995969;28;20173;-89
2023/04/02 06:48:28;;;;;;;1.00;0.90;;;5.60;99.90;;;;;;4994519;28;20187;-87
2023/04/02 06:51:04;;;;;;;0.90;0.90;;;5.50;99.90;;;;;;5002484;28;20197;-92
2023/04/02 06:53:36;;;;;;;0.97;0.90;;;5.50;99.90;;;;;;4997792;28;20175;-85
2023/04/02 06:56:16;;;;;;;0.90;0.90;;;5.50;99.90;;;;;;4994197;28;20179;-85
2023/04/02 06:58:41;;;;;;;0.80;0.80;;;5.40;99.90;;;;;;4994097;28;20261;-87
2023/04/02 07:01:14;;;;;;;1.10;1.00;;;5.30;99.90;;;;;;4994132;28;20274;-86
2023/04/02 07:03:40;;;;;;;0.73;0.73;;;5.40;99.90;;;;;;4994164;28;20354;-87
2023/04/02 07:06:15;;;;;;;0.80;0.80;;;5.30;99.90;;;;;;4994165;28;20199;-86
2023/04/02 07:08:41;;;;;;;0.77;0.77;;;5.30;99.90;;;;;;4994163;28;20205;-86
2023/04/02 07:11:06;;;;;;;0.90;0.70;;;5.20;99.90;;;;;;4993245;28;20179;-85
2023/04/02 07:13:32;;;;;;;0.77;0.70;;;5.20;99.90;;;;;;4993964;28;20171;-86
2023/04/02 07:15:57;;;;;;;0.60;0.60;;;5.20;99.90;;;;;;4994024;28;20184;-86
2023/04/02 07:18:25;;;;;;;0.60;0.60;;;5.30;99.90;;;;;;4994021;28;20199;-85
2023/04/02 07:20:51;;;;;;;0.83;0.73;;;5.30;99.90;;;;;;4993287;28;20191;-86
2023/04/02 07:23:17;;;;;;;0.77;0.70;;;5.30;99.90;;;;;;4994228;28;20206;-84
2023/04/02 07:25:42;;;;;;;0.70;0.70;;;5.30;99.90;;;;;;4994125;28;20193;-81
2023/04/02 07:28:08;;;;;;;0.70;0.70;;;5.30;99.90;;;;;;4995305;28;20224;-84
2023/04/02 07:30:34;;;;;;;0.50;0.50;;;5.30;99.90;;;;;;4994395;28;20210;-85
2023/04/02 07:33:00;;;;;;;0.50;0.50;;;5.40;99.90;;;;;;4994851;28;20179;-85
2023/04/02 07:35:26;;;;;;;0.70;0.60;;;5.20;99.90;;;;;;4993424;28;20230;-87
2023/04/02 07:37:52;;;;;;;0.60;0.60;;;5.20;99.90;;;;;;4993370;28;20618;-87
2023/04/02 07:40:19;;;;;;;0.80;0.80;;;5.30;99.90;;;;;;4992877;28;20195;-87
2023/04/02 07:42:45;;;;;;;0.60;0.60;;;5.20;99.90;;;;;;4993480;28;20211;-86
2023/04/02 07:45:11;;;;;;;0.60;0.60;;;5.20;99.90;;;;;;4993520;28;20180;-86
2023/04/02 07:47:37;;;;;;;0.57;0.57;;;5.20;99.90;;;;;;4993530;28;20290;-83
2023/04/02 07:50:04;;;;;;;0.70;0.70;;;5.30;99.90;;;;;;4992902;28;20265;-86
2023/04/02 07:52:30;;;;;;;0.40;0.40;;;5.20;99.90;;;;;;4992106;28;20168;-84
2023/04/02 07:54:55;;;;;;;1.20;0.80;;;5.30;99.90;;;;;;4993147;28;20179;-86
2023/04/02 07:57:21;;;;;;;0.77;0.77;;;5.40;99.90;;;;;;4992818;28;20179;-86
2023/04/02 07:59:47;;;;;;;1.13;1.03;;;5.40;99.90;;;;;;4992892;28;20179;-86
2023/04/02 08:02:20;;;;;;;0.80;0.80;;;5.60;99.90;;;;;;4994153;28;20175;-86
2023/04/02 08:04:46;;;;;;;1.00;0.90;;;5.50;99.90;;;;;;4993997;28;20172;-86
2023/04/02 08:07:12;;;;;;;1.10;1.00;;;5.50;99.90;;;;;;4992847;28;20271;-85
2023/04/02 08:09:38;;;;;;;1.20;1.10;;;5.60;99.90;;;;;;4992225;28;20278;-87
2023/04/02 08:12:03;;;;;;;1.07;0.97;;;5.60;99.90;;;;;;4994207;28;20262;-86
2023/04/02 08:14:29;;;;;;;1.33;1.10;;;5.70;99.90;;;;;;4992765;28;20249;-87
2023/04/02 08:16:55;;;;;;;1.27;1.13;;;5.70;99.90;;;;;;4992852;28;20640;-87
2023/04/02 08:19:21;;;;;;;1.40;1.30;;;5.80;99.90;;;;;;4993637;28;20192;-86
2023/04/02 08:21:50;;;;;;;1.30;1.20;;;5.70;99.90;;;;;;4992510;28;20655;-86
2023/04/02 08:24:19;;;;;;;2.00;1.37;;;5.80;99.90;;;;;;4992268;28;20274;-86
2023/04/02 08:26:46;;;;;;;1.30;1.20;;;5.70;99.90;;;;;;4992607;28;20326;-85
2023/04/02 08:29:12;;;;;;;2.83;2.30;;;5.70;99.90;;;;;;4992450;28;20293;-86
2023/04/02 08:31:37;;;;;;;13.23;12.03;;;5.70;99.90;;;;;;4992054;28;20269;-86
2023/04/02 08:34:03;;;;;;;2.20;1.63;;;5.70;99.90;;;;;;4992250;28;20179;-86
2023/04/02 08:36:33;;;;;;;3.97;3.67;;;5.60;99.90;;;;;;4993545;28;20322;-86
2023/04/02 08:38:59;;;;;;;2.10;2.00;;;5.40;99.90;;;;;;4993308;28;20238;-86
2023/04/02 08:41:31;;;;;;;2.20;2.10;;;5.40;99.90;;;;;;4992816;28;20624;-86
2023/04/02 08:44:11;;;;;;;3.90;3.60;;;5.30;99.90;;;;;;4992248;28;20583;-86
2023/04/02 08:46:43;;;;;;;3.27;3.03;;;5.30;99.90;;;;;;4993567;28;20537;-84
2023/04/02 08:49:15;;;;;;;1.30;1.20;;;5.40;99.90;;;;;;4992044;28;20214;-86
2023/04/02 08:51:41;;;;;;;1.70;1.60;;;5.40;99.90;;;;;;4992736;28;20195;-86
2023/04/02 08:54:20;;;;;;;1.93;1.83;;;5.30;99.90;;;;;;4993542;28;20200;-86
2023/04/02 08:56:58;;;;;;;1.90;1.80;;;5.40;99.90;;;;;;4993186;28;20254;-86
2023/04/02 08:59:26;;;;;;;1.40;1.30;;;5.10;99.90;;;;;;4992983;28;20228;-86
2023/04/02 09:02:29;;;;;;;1.07;0.97;;;5.20;99.90;;;;;;4991190;28;20614;-86
2023/04/02 09:04:57;;;;;;;2.60;2.40;;;5.20;99.90;;;;;;4992819;28;20194;-87
2023/04/02 09:07:23;;;;;;;1.43;1.33;;;5.20;99.90;;;;;;4992066;28;20170;-87
2023/04/02 09:09:50;;;;;;;3.93;3.53;;;5.20;99.90;;;;;;4992518;28;20218;-87
2023/04/02 09:12:19;;;;;;;2.13;1.93;;;5.30;99.90;;;;;;4991687;28;20175;-87
2023/04/02 09:15:10;;;;;;;3.70;3.40;;;5.30;99.90;;;;;;4993129;28;20250;-86
2023/04/02 09:17:38;;;;;;;1.63;1.50;;;5.30;99.90;;;;;;4991556;28;20176;-86
2023/04/02 09:20:25;;;;;;;2.30;2.10;;;5.30;99.90;;;;;;4991407;28;20176;-86
2023/04/02 09:22:51;;;;;;;1.93;1.77;;;5.30;99.90;;;;;;4991793;28;20203;-86
2023/04/02 09:25:25;;;;;;;1.63;1.50;;;5.30;99.90;;;;;;4991751;28;20315;-86
2023/04/02 09:27:53;;;;;;;2.23;2.03;;;5.20;99.90;;;;;;4992899;28;20207;-86
2023/04/02 09:30:41;;;;;;;3.50;3.20;;;5.30;99.90;;;;;;4991170;28;20674;-87
2023/04/02 09:33:07;;;;;;;1.93;1.70;;;5.30;99.90;;;;;;4992679;28;20180;-86
2023/04/02 09:35:35;;;;;;;1.63;1.53;;;5.30;99.90;;;;;;4991428;28;20214;-83
2023/04/02 09:38:10;;;;;;;1.40;1.30;;;5.30;99.90;;;;;;4991848;28;20736;-83
2023/04/02 09:40:54;;;;;;;1.73;1.40;;;5.30;99.90;;;;;;4991004;28;20660;-82
2023/04/02 09:43:23;;;;;;;1.47;1.37;;;5.30;99.90;;;;;;4992577;28;20614;-84
2023/04/02 09:45:59;;;;;;;1.73;1.50;;;5.40;99.90;;;;;;4993444;28;20172;-82
2023/04/02 09:48:36;;;;;;;1.60;1.50;;;5.20;99.90;;;;;;4993007;28;20187;-84
2023/04/02 09:51:14;;;;;;;1.67;1.57;;;5.20;99.90;;;;;;4990909;28;20198;-85
2023/04/02 09:54:11;;;;;;;2.03;1.70;;;5.00;99.90;;;;;;4991422;28;20171;-84
2023/04/02 09:56:38;;;;;;;2.17;1.80;;;5.10;99.90;;;;;;4978810;28;20187;-85
2023/04/02 09:59:16;;;;;;;2.30;2.10;;;5.00;99.90;;;;;;4991140;28;20214;-87
2023/04/02 10:02:02;;;;;;;2.57;2.37;;;5.00;99.90;;;;;;4992060;28;20179;-86
2023/04/02 10:04:48;;;;;;;4.30;3.20;;;4.80;99.90;;;;;;4992307;28;20207;-87
2023/04/02 10:07:29;;;;;;;6.43;5.17;;;4.70;99.90;;;;;;4991565;28;20527;-87
2023/04/02 10:10:00;;;;;;;3.67;3.33;;;4.60;99.90;;;;;;4990799;28;20249;-87
2023/04/02 10:12:27;;;;;;;11.37;7.90;;;4.60;99.90;;;;;;4991162;28;20174;-86
2023/04/02 10:14:54;;;;;;;5.53;4.40;;;4.60;99.90;;;;;;4992213;28;20206;-87
2023/04/02 10:17:30;;;;;;;2.80;2.43;;;4.80;99.90;;;;;;4995949;28;20185;-84
2023/04/02 10:20:05;;;;;;;7.10;5.03;;;4.80;99.90;;;;;;4994488;28;20185;-86
2023/04/02 10:22:31;;;;;;;5.80;3.40;;;4.90;99.90;;;;;;4995162;28;20171;-85
2023/04/02 10:24:58;;;;;;;2.20;2.00;;;5.00;99.90;;;;;;4994692;28;20557;-85
2023/04/02 10:27:29;;;;;;;22.73;14.33;;;5.10;99.90;;;;;;4994757;28;20176;-85
2023/04/02 10:30:04;;;;;;;13.33;9.30;;;5.00;99.90;;;;;;4994228;28;20273;-85
2023/04/02 10:32:42;;;;;;;6.27;4.37;;;5.10;99.90;;;;;;4994535;28;20208;-83
2023/04/02 10:35:33;;;;;;;16.50;13.17;;;5.10;99.90;;;;;;4996265;28;20242;-90
2023/04/02 10:38:17;;;;;;;9.20;8.20;;;5.40;99.90;;;;;;4998263;28;20198;-91
2023/04/02 10:41:08;;;;;;;5.83;5.23;;;6.70;99.90;;;;;;4994339;28;20172;-91
2023/04/02 10:43:40;;;;;;;5.73;5.13;;;6.70;99.90;;;;;;4994528;28;20689;-92
2023/04/02 10:46:34;;;;;;;5.00;4.50;;;7.50;99.90;;;;;;4995844;28;20252;-91
2023/04/02 10:49:07;;;;;;;4.17;3.77;;;8.10;99.90;;;;;;4996239;28;20329;-91
2023/04/02 10:51:47;;;;;;;5.20;4.70;;;8.20;99.90;;;;;;4993992;28;20172;-90
2023/04/02 10:54:32;;;;;;;3.47;3.17;;;7.90;99.90;;;;;;4995346;28;20181;-84
2023/04/02 10:57:27;;;;;;;3.57;3.27;;;9.10;99.90;;;;;;4994217;28;20642;-84
2023/04/02 11:00:08;;;;;;;1.60;1.43;;;7.70;99.90;;;;;;4983157;28;20193;-89
2023/04/02 11:02:42;;;;;;;1.90;1.70;;;6.60;99.90;;;;;;4995065;28;20187;-89
2023/04/02 11:05:29;;;;;;;2.30;2.00;;;6.20;99.90;;;;;;4994301;28;20178;-89
2023/04/02 11:08:20;;;;;;;2.50;2.30;;;6.00;99.90;;;;;;4995948;28;20213;-90
2023/04/02 11:10:51;;;;;;;2.00;1.77;;;6.10;99.90;;;;;;4984464;28;20188;-90
2023/04/02 11:13:38;;;;;;;3.03;2.43;;;6.00;99.90;;;;;;4995459;28;20209;-90
2023/04/02 11:16:05;;;;;;;3.20;2.90;;;5.80;99.90;;;;;;4994106;28;20278;-91
2023/04/02 11:18:35;;;;;;;5.87;3.50;;;5.90;99.90;;;;;;4995074;28;20279;-89
2023/04/02 11:21:05;;;;;;;4.10;3.70;;;5.90;99.90;;;;;;4989398;28;20194;-86
2023/04/02 11:23:53;;;;;;;4.97;4.27;;;6.10;99.90;;;;;;4995754;28;20199;-83
2023/04/02 11:26:37;;;;;;;6.30;4.90;;;5.70;99.90;;;;;;4981742;28;20573;-82
2023/04/02 11:29:20;;;;;;;5.83;4.90;;;5.60;99.90;;;;;;4994789;28;20203;-83
2023/04/02 11:31:47;;;;;;;8.23;5.77;;;5.40;99.90;;;;;;4995433;28;20267;-82
2023/04/02 11:34:35;;;;;;;8.13;5.93;;;5.20;99.90;;;;;;4999093;28;20264;-82
2023/04/02 11:37:06;;;;;;;7.10;5.73;;;6.10;99.90;;;;;;4994996;28;20188;-83
2023/04/02 11:39:52;;;;;;;6.07;5.33;;;6.10;99.90;;;;;;4995223;28;20200;-82
2023/04/02 11:42:17;;;;;;;6.00;5.40;;;5.80;99.90;;;;;;4993913;28;20182;-83
2023/04/02 11:44:44;;;;;;;6.20;5.50;;;5.40;99.90;;;;;;4995385;28;20203;-83
2023/04/02 11:47:21;;;;;;;6.90;5.77;;;5.00;99.90;;;;;;4993781;28;20176;-83
2023/04/02 11:50:00;;;;;;;6.73;6.00;;;4.90;99.90;;;;;;4994245;28;20227;-83
2023/04/02 11:52:44;;;;;;;7.73;5.50;;;4.70;99.90;;;;;;4994668;28;20183;-83
2023/04/02 11:55:26;;;;;;;7.27;5.70;;;4.70;99.90;;;;;;4994965;28;20550;-83
2023/04/02 11:58:07;;;;;;;9.27;6.83;;;4.60;99.90;;;;;;4994820;28;20245;-83
2023/04/02 12:01:10;;;;;;;7.17;6.47;;;4.50;99.90;;;;;;4994147;28;20269;-83
2023/04/02 12:03:47;;;;;;;7.77;5.60;;;4.60;99.90;;;;;;4918295;29;20295;-83
2023/04/02 12:06:41;;;;;;;9.67;7.63;;;4.70;99.90;;;;;;4987675;28;20606;-83
2023/04/02 12:09:18;;;;;;;18.67;15.03;;;4.70;99.90;;;;;;4993230;28;20194;-83
2023/04/02 12:11:46;;;;;;;11.40;6.60;;;4.50;99.90;;;;;;4994417;28;20250;-81
2023/04/02 12:14:51;;;;;;;11.27;9.10;;;4.40;99.90;;;;;;4993255;28;20206;-81
2023/04/02 12:17:33;;;;;;;11.80;8.30;;;4.50;99.90;;;;;;4992665;28;20281;-82
2023/04/02 12:20:00;;;;;;;8.90;6.83;;;4.50;99.90;;;;;;4989361;28;20188;-82
2023/04/02 12:22:31;;;;;;;7.10;6.13;;;4.30;99.90;;;;;;4975239;28;20176;-82
2023/04/02 12:25:22;;;;;;;12.17;6.97;;;4.30;99.90;;;;;;4975228;28;20182;-82
2023/04/02 12:28:22;;;;;;;8.90;7.30;;;4.40;99.90;;;;;;4973368;28;20199;-82
2023/04/02 12:30:49;;;;;;;9.07;6.80;;;4.40;99.90;;;;;;4972901;28;20268;-82
2023/04/02 12:33:21;;;;;;;7.63;5.90;;;4.30;99.90;;;;;;4974125;28;20183;-82
2023/04/02 12:35:49;;;;;;;7.00;5.87;;;4.20;99.90;;;;;;4973604;28;20187;-82
2023/04/02 12:38:27;;;;;;;7.70;6.47;;;4.10;99.90;;;;;;4974428;28;20203;-81
2023/04/02 12:40:53;;;;;;;8.03;6.90;;;4.10;99.90;;;;;;4972841;28;20187;-82
2023/04/02 12:43:27;;;;;;;10.33;7.97;;;4.20;99.90;;;;;;4973225;28;20207;-82
2023/04/02 12:45:56;;;;;;;9.30;6.73;;;4.30;99.90;;;;;;4973361;28;20593;-82
2023/04/02 12:48:23;;;;;;;6.47;5.50;;;4.60;99.90;;;;;;4974867;28;20192;-82
2023/04/02 12:50:49;;;;;;;8.00;5.83;;;4.50;99.90;;;;;;4974246;28;20267;-82
2023/04/02 12:53:25;;;;;;;14.60;10.30;;;4.30;99.90;;;;;;4974437;28;20239;-81
2023/04/02 12:55:52;;;;;;;8.43;6.50;;;4.10;99.90;;;;;;4989623;28;20179;-83
2023/04/02 12:58:34;;;;;;;7.93;6.30;;;4.20;99.90;;;;;;4972952;28;20326;-82
2023/04/02 13:01:11;;;;;;;5.67;4.70;;;4.40;99.90;;;;;;4972798;28;20168;-80
2023/04/02 13:03:37;;;;;;;6.93;5.13;;;4.30;99.90;;;;;;4972867;28;20206;-84
2023/04/02 13:06:11;;;;;;;6.67;4.67;;;4.40;99.90;;;;;;4974453;28;20178;-83
2023/04/02 13:08:41;;;;;;;5.60;4.83;;;4.30;99.90;;;;;;4983979;28;20289;-83
2023/04/02 13:11:06;;;;;;;5.77;3.70;;;4.40;99.90;;;;;;5000817;28;20286;-83
2023/04/02 13:13:38;;;;;;;4.07;3.47;;;4.30;99.90;;;;;;4992746;28;20218;-82
2023/04/02 13:16:24;;;;;;;5.40;3.73;;;4.40;99.90;;;;;;4988414;28;20229;-82
2023/04/02 13:18:51;;;;;;;3.20;2.90;;;4.20;99.90;;;;;;4985895;28;20671;-83
2023/04/02 13:21:19;;;;;;;4.10;3.23;;;4.40;99.90;;;;;;4992728;28;20175;-82
2023/04/02 13:23:45;;;;;;;4.37;3.30;;;4.40;99.90;;;;;;4991818;28;20201;-82
2023/04/02 13:26:14;;;;;;;6.13;4.60;;;4.50;99.90;;;;;;4984046;28;20175;-83
2023/04/02 13:28:39;;;;;;;8.23;6.57;;;4.50;99.90;;;;;;4976218;28;20631;-82
2023/04/02 13:31:05;;;;;;;7.13;3.97;;;4.50;99.90;;;;;;4993078;28;20209;-82